Saint George Island, Florida
Current Conditions -  °F | °C
As of 3:53 AM on Sunday 26 Oct 2014 (Local Time) from KAAF Reporting Station
Clear Clear  
Wind Chill: 60°   Ceiling: Unl
Heat Index: 60°   Visibility: 10mi
Dew Point: 51°   Wind: 0mph
Humidity: 72%   Direction: NA
Pressure: 29.99"   Gusts: NA
Location:  29.8852°N, 84.8748°W
Report Text: KAAF 260753Z AUTO 00000KT 10SM CLR 16/11 A2999 RMK AO2 SLP156 T01560106 TSNO
Loading
Personal Weather Stations






























Interactive Weather Map New forecast layout! Learn more

10-Day Weather Forecast

Advertisements
Track Severe Weather on mobile